createdAt,value
2019-04-07T00:01:04.844Z,49.05
2019-04-07T00:03:38.986Z,49.45
2019-04-07T00:06:13.485Z,49.85
2019-04-07T00:08:48.196Z,47.65
2019-04-07T00:11:22.949Z,50.50
2019-04-07T00:13:56.879Z,50.70
2019-04-07T00:16:30.945Z,50.60
2019-04-07T00:19:04.352Z,47.55
2019-04-07T00:21:38.387Z,45.90
2019-04-07T00:24:12.624Z,49.05
2019-04-07T00:26:46.282Z,49.23
2019-04-07T00:29:20.531Z,45.92
2019-04-07T00:31:54.714Z,46.55
2019-04-07T00:34:27.859Z,46.30
2019-04-07T00:37:01.957Z,48.02
2019-04-07T00:39:36.186Z,48.30
2019-04-07T00:42:10.556Z,49.90
2019-04-07T00:44:44.320Z,48.45
2019-04-07T00:47:18.541Z,46.35
2019-04-07T00:49:52.306Z,47.35
2019-04-07T00:52:26.023Z,48.42
2019-04-07T00:55:00.334Z,48.48
2019-04-07T00:57:33.934Z,48.15
2019-04-07T01:00:08.744Z,47.78
2019-04-07T01:02:42.945Z,47.78
2019-04-07T01:05:16.897Z,45.85
2019-04-07T01:07:50.107Z,45.38
2019-04-07T01:10:24.248Z,48.28
2019-04-07T01:12:58.967Z,46.45
2019-04-07T01:15:33.974Z,43.38
2019-04-07T01:18:07.774Z,42.50
2019-04-07T01:20:41.924Z,42.83
2019-04-07T01:23:16.031Z,39.85
2019-04-07T01:25:50.078Z,44.13
2019-04-07T01:28:24.122Z,43.05
2019-04-07T01:30:57.975Z,42.40
2019-04-07T01:33:32.343Z,41.68
2019-04-07T01:36:06.084Z,44.58
2019-04-07T01:38:40.079Z,41.40
2019-04-07T01:41:22.952Z,43.33
2019-04-07T01:47:00.465Z,46.35
2019-04-07T01:49:42.360Z,42.75
2019-04-07T01:52:21.600Z,50.05
2019-04-07T01:55:06.077Z,47.15
2019-04-07T01:57:56.993Z,46.40
2019-04-07T02:00:58.744Z,46.73
2019-04-07T02:03:55.303Z,46.60
2019-04-07T02:06:45.623Z,47.85
2019-04-07T02:09:29.086Z,46.63
2019-04-07T02:12:24.814Z,43.92
2019-04-07T02:15:12.688Z,47.65
2019-04-07T02:18:08.018Z,46.68
2019-04-07T02:21:05.311Z,47.23
2019-04-07T02:24:06.467Z,46.02
2019-04-07T02:27:05.662Z,43.83
2019-04-07T02:30:00.512Z,41.28
2019-04-07T02:32:58.273Z,45.83
2019-04-07T02:35:40.155Z,43.80
2019-04-07T02:38:42.376Z,43.90
2019-04-07T02:41:26.052Z,43.95
2019-04-07T02:44:25.147Z,41.65
2019-04-07T02:47:06.558Z,36.75
2019-04-07T02:49:47.537Z,37.93
2019-04-07T02:52:52.838Z,35.95
2019-04-07T02:55:33.514Z,38.83
2019-04-07T02:58:15.930Z,36.85
2019-04-07T03:01:24.025Z,36.58
2019-04-07T03:04:10.331Z,33.88
2019-04-07T03:06:58.657Z,36.33
2019-04-07T03:10:09.378Z,37.93
2019-04-07T03:13:07.312Z,37.75
2019-04-07T03:15:46.209Z,39.60
2019-04-07T03:18:37.402Z,38.02
2019-04-07T03:21:45.807Z,39.10
2019-04-07T03:24:36.999Z,39.88
2019-04-07T03:27:27.197Z,37.35
2019-04-07T03:30:24.760Z,41.77
2019-04-07T03:33:14.110Z,41.90
2019-04-07T03:36:11.680Z,41.20
2019-04-07T03:38:53.748Z,39.03
2019-04-07T03:41:47.190Z,41.08
2019-04-07T03:44:40.810Z,41.40
2019-04-07T03:47:34.565Z,41.23
2019-04-07T03:50:25.663Z,39.98
2019-04-07T03:53:33.662Z,42.17
2019-04-07T03:56:28.818Z,42.27
2019-04-07T03:59:30.269Z,41.73
2019-04-07T04:02:25.011Z,40.12
2019-04-07T04:05:18.916Z,41.53
2019-04-07T04:08:14.360Z,42.33
2019-04-07T04:10:54.260Z,42.08
2019-04-07T04:13:42.973Z,42.62
2019-04-07T04:16:23.865Z,41.45
2019-04-07T04:18:57.466Z,40.75
2019-04-07T04:21:32.775Z,40.23
2019-04-07T04:24:06.816Z,40.35
2019-04-07T04:26:40.933Z,39.95
2019-04-07T04:29:15.709Z,39.73
2019-04-07T04:31:49.404Z,39.85
2019-04-07T04:34:23.830Z,39.10
2019-04-07T04:36:57.400Z,40.58
2019-04-07T04:39:31.517Z,36.90
2019-04-07T04:42:05.513Z,38.88
2019-04-07T04:44:40.493Z,39.92
2019-04-07T04:47:14.593Z,40.48
2019-04-07T04:49:48.391Z,42.85
2019-04-07T04:52:22.559Z,41.35
2019-04-07T04:54:55.426Z,44.40
2019-04-07T04:57:29.307Z,41.95
2019-04-07T05:00:05.055Z,43.80
2019-04-07T05:02:39.436Z,40.67
2019-04-07T05:05:13.391Z,43.25
2019-04-07T05:07:57.724Z,43.33
2019-04-07T05:10:22.813Z,42.78
2019-04-07T05:12:57.216Z,41.75
2019-04-07T05:15:30.930Z,42.75
2019-04-07T05:18:05.249Z,42.38
2019-04-07T05:20:38.924Z,42.30
2019-04-07T05:23:13.027Z,42.17
2019-04-07T05:25:46.679Z,44.27
2019-04-07T05:28:20.065Z,44.50
2019-04-07T05:30:54.317Z,43.38
2019-04-07T05:33:28.634Z,44.33
2019-04-07T05:36:02.093Z,44.30
2019-04-07T05:38:35.887Z,44.77
2019-04-07T05:41:10.763Z,45.85
2019-04-07T05:43:44.527Z,45.23
2019-04-07T05:46:19.319Z,43.08
2019-04-07T05:48:53.133Z,43.58
2019-04-07T05:51:29.947Z,41.75
2019-04-07T05:54:02.610Z,42.17
2019-04-07T05:56:37.013Z,41.50
2019-04-07T05:59:13.069Z,43.45
2019-04-07T06:01:47.021Z,44.25
2019-04-07T06:04:21.792Z,45.67
2019-04-07T06:06:56.665Z,44.35
2019-04-07T06:09:33.529Z,47.03
2019-04-07T06:12:09.061Z,50.80
2019-04-07T06:14:41.722Z,48.65
2019-04-07T06:17:16.220Z,49.03
2019-04-07T06:19:52.435Z,49.67
2019-04-07T06:22:26.302Z,50.52
2019-04-07T06:25:01.710Z,52.17
2019-04-07T06:27:35.879Z,51.92
2019-04-07T06:30:10.909Z,54.88
2019-04-07T06:32:44.749Z,54.23
2019-04-07T06:35:18.301Z,57.23
2019-04-07T06:37:52.046Z,55.83
2019-04-07T06:40:24.787Z,53.08
2019-04-07T06:42:59.033Z,49.60
2019-04-07T06:45:37.623Z,49.40
2019-04-07T06:48:10.292Z,48.42
2019-04-07T06:51:13.959Z,49.58
2019-04-07T06:54:05.851Z,47.85
2019-04-07T06:57:09.434Z,44.35
2019-04-07T06:59:59.113Z,49.25
2019-04-07T07:02:50.376Z,51.18
2019-04-07T07:05:35.414Z,50.40
2019-04-07T07:08:29.038Z,45.98
2019-04-07T07:11:24.753Z,46.53
2019-04-07T07:14:01.158Z,47.00
2019-04-07T07:16:56.566Z,43.65
2019-04-07T07:19:39.099Z,44.23
2019-04-07T07:22:35.714Z,44.55
2019-04-07T07:25:11.119Z,42.78
2019-04-07T07:27:46.034Z,44.35
2019-04-07T07:30:21.390Z,44.08
2019-04-07T07:32:55.283Z,46.73
2019-04-07T07:35:29.715Z,49.45
2019-04-07T07:38:02.942Z,47.55
2019-04-07T07:40:36.592Z,47.35
2019-04-07T07:43:10.727Z,46.35
2019-04-07T07:45:47.367Z,45.73
2019-04-07T07:48:24.938Z,46.37
2019-04-07T07:50:56.472Z,45.12
2019-04-07T07:53:29.679Z,44.18
2019-04-07T07:56:08.461Z,45.85
2019-04-07T07:58:39.568Z,47.58
2019-04-07T08:01:14.844Z,44.98
2019-04-07T08:03:51.834Z,41.45
2019-04-07T08:06:25.033Z,42.15
2019-04-07T08:09:09.816Z,48.85
2019-04-07T08:11:34.740Z,41.88
2019-04-07T08:14:09.035Z,43.68
2019-04-07T08:16:42.643Z,45.08
2019-04-07T08:19:16.800Z,44.45
2019-04-07T08:21:51.992Z,40.73
2019-04-07T08:24:26.165Z,39.73
2019-04-07T08:27:00.216Z,37.88
2019-04-07T08:29:37.130Z,39.78
2019-04-07T08:32:09.678Z,38.78
2019-04-07T08:34:43.687Z,42.55
2019-04-07T08:37:19.010Z,41.05
2019-04-07T08:39:55.794Z,42.73
2019-04-07T08:42:27.906Z,38.20
2019-04-07T08:45:03.306Z,35.15
2019-04-07T08:47:38.100Z,37.13
2019-04-07T08:50:11.563Z,36.23
2019-04-07T08:52:44.479Z,34.70
2019-04-07T08:55:20.109Z,35.65
2019-04-07T08:57:54.999Z,32.45
2019-04-07T09:00:29.418Z,35.63
2019-04-07T09:03:08.298Z,37.38
2019-04-07T09:05:39.870Z,34.43
2019-04-07T09:08:14.898Z,30.55
2019-04-07T09:11:02.269Z,29.42
2019-04-07T09:13:36.324Z,26.90
2019-04-07T09:16:21.196Z,23.92
2019-04-07T09:19:08.313Z,22.75
2019-04-07T09:22:00.681Z,24.90
2019-04-07T09:25:06.663Z,24.20
2019-04-07T09:27:51.112Z,24.45
2019-04-07T09:30:40.936Z,26.17
2019-04-07T09:33:38.852Z,26.45
2019-04-07T09:36:32.595Z,25.00
2019-04-07T09:39:32.116Z,27.75
2019-04-07T09:42:24.373Z,27.02
2019-04-07T09:45:22.991Z,26.77
2019-04-07T09:48:10.502Z,28.57
2019-04-07T09:51:05.114Z,25.35
2019-04-07T09:53:55.431Z,25.40
2019-04-07T09:56:47.219Z,26.02
2019-04-07T09:59:40.631Z,28.07
2019-04-07T10:02:34.161Z,25.72
2019-04-07T10:05:42.407Z,27.55
2019-04-07T10:08:23.901Z,26.10
2019-04-07T10:11:05.307Z,26.55
2019-04-07T10:13:51.949Z,27.37
2019-04-07T10:16:41.930Z,27.85
2019-04-07T10:19:36.291Z,28.57
2019-04-07T10:22:25.539Z,28.55
2019-04-07T10:25:13.000Z,28.15
2019-04-07T10:28:09.640Z,28.65
2019-04-07T10:30:59.832Z,28.67
2019-04-07T10:34:12.357Z,27.02
2019-04-07T10:37:06.698Z,26.25
2019-04-07T10:40:01.681Z,28.77
2019-04-07T10:42:57.242Z,27.95
2019-04-07T10:45:50.552Z,29.25
2019-04-07T10:48:37.836Z,27.15
2019-04-07T10:51:28.498Z,27.00
2019-04-07T10:54:21.278Z,26.85
2019-04-07T10:57:03.338Z,27.05
2019-04-07T10:59:53.462Z,27.70
2019-04-07T11:02:53.887Z,26.45
2019-04-07T11:05:52.351Z,26.37
2019-04-07T11:08:52.231Z,26.23
2019-04-07T11:11:43.718Z,27.25
2019-04-07T11:14:31.429Z,26.50
2019-04-07T11:17:21.573Z,26.05
2019-04-07T11:20:17.026Z,26.52
2019-04-07T11:23:11.987Z,25.35
2019-04-07T11:25:57.006Z,24.75
2019-04-07T11:29:02.784Z,25.25
2019-04-07T11:31:48.466Z,24.15
2019-04-07T11:34:52.941Z,24.20
2019-04-07T11:37:37.562Z,24.40
2019-04-07T11:40:29.178Z,23.85
2019-04-07T11:43:10.937Z,24.27
2019-04-07T11:45:57.445Z,22.90
2019-04-07T11:48:33.174Z,21.62
2019-04-07T11:51:28.957Z,22.20
2019-04-07T11:54:17.506Z,23.15
2019-04-07T11:57:08.678Z,22.95
2019-04-07T12:00:00.064Z,21.10
2019-04-07T12:03:06.080Z,21.10
2019-04-07T12:05:53.875Z,19.95
2019-04-07T12:08:45.657Z,20.17
2019-04-07T12:11:31.118Z,22.27
2019-04-07T12:14:21.827Z,24.23
2019-04-07T12:17:19.933Z,24.45
2019-04-07T12:19:58.107Z,20.95
2019-04-07T12:23:01.851Z,21.57
2019-04-07T12:26:02.125Z,20.75
2019-04-07T12:29:10.795Z,20.23
2019-04-07T12:31:51.041Z,22.50
2019-04-07T12:34:41.800Z,20.32
2019-04-07T12:37:50.663Z,20.92
2019-04-07T12:40:59.498Z,20.92
2019-04-07T12:43:49.563Z,20.65
2019-04-07T12:46:38.489Z,20.37
2019-04-07T12:49:32.942Z,21.10
2019-04-07T12:52:29.825Z,19.05
2019-04-07T12:55:16.827Z,19.73
2019-04-07T12:58:21.454Z,20.40
2019-04-07T13:01:16.347Z,19.87
2019-04-07T13:04:13.276Z,18.75
2019-04-07T13:07:07.814Z,18.98
2019-04-07T13:09:55.507Z,19.90
2019-04-07T13:12:57.179Z,20.12
2019-04-07T13:15:46.458Z,18.92
2019-04-07T13:18:42.453Z,19.57
2019-04-07T13:21:45.515Z,18.90
2019-04-07T13:24:37.775Z,18.02
2019-04-07T13:27:22.156Z,18.67
2019-04-07T13:30:08.411Z,18.55
2019-04-07T13:33:00.600Z,18.50
2019-04-07T13:35:49.244Z,18.62
2019-04-07T13:38:46.582Z,18.77
2019-04-07T13:41:45.898Z,19.40
2019-04-07T13:44:38.773Z,18.40
2019-04-07T13:47:20.616Z,17.12
2019-04-07T13:50:02.630Z,18.00
2019-04-07T13:52:57.855Z,18.00
2019-04-07T13:55:48.658Z,17.80
2019-04-07T13:58:38.915Z,17.27
2019-04-07T14:01:37.288Z,16.17
2019-04-07T14:04:40.037Z,16.97
2019-04-07T14:07:37.241Z,16.37
2019-04-07T14:10:33.337Z,16.40
2019-04-07T14:13:37.941Z,16.87
2019-04-07T14:16:15.905Z,15.80
2019-04-07T14:19:17.816Z,15.05
2019-04-07T14:21:58.926Z,16.40
2019-04-07T14:24:53.754Z,16.52
2019-04-07T14:27:33.997Z,16.45
2019-04-07T14:30:42.297Z,16.02
2019-04-07T14:33:24.256Z,16.50
2019-04-07T14:36:25.064Z,16.70
2019-04-07T14:39:29.388Z,16.73
2019-04-07T14:42:34.204Z,16.00
2019-04-07T14:45:20.064Z,17.07
2019-04-07T14:47:59.318Z,15.90
2019-04-07T14:50:47.344Z,16.40
2019-04-07T14:53:36.677Z,16.02
2019-04-07T14:56:40.834Z,16.60
2019-04-07T14:59:52.106Z,16.07
2019-04-07T15:02:25.098Z,17.20
2019-04-07T15:05:01.561Z,17.02
2019-04-07T15:07:53.919Z,17.67
2019-04-07T15:10:30.808Z,16.85
2019-04-07T15:13:07.100Z,15.83
2019-04-07T15:15:40.000Z,16.52
2019-04-07T15:18:13.135Z,16.93
2019-04-07T15:20:47.342Z,16.97
2019-04-07T15:23:21.517Z,17.45
2019-04-07T15:25:55.288Z,18.10
2019-04-07T15:28:30.672Z,17.67
2019-04-07T15:31:04.187Z,17.10
2019-04-07T15:33:37.025Z,17.73
2019-04-07T15:36:10.830Z,17.90
2019-04-07T15:38:44.115Z,17.17
2019-04-07T15:41:18.912Z,18.50
2019-04-07T15:43:50.972Z,17.70
2019-04-07T15:46:23.832Z,17.62
2019-04-07T15:48:56.887Z,17.85
2019-04-07T15:51:34.125Z,17.80
2019-04-07T15:54:04.739Z,17.37
2019-04-07T15:56:38.166Z,17.10
2019-04-07T15:59:11.855Z,16.93
2019-04-07T16:01:45.168Z,17.42
2019-04-07T16:04:23.707Z,17.75
2019-04-07T16:06:52.924Z,16.60
2019-04-07T16:09:36.013Z,17.37
2019-04-07T16:12:00.608Z,17.37
2019-04-07T16:14:33.129Z,16.48
2019-04-07T16:17:07.311Z,17.35
2019-04-07T16:19:43.084Z,16.62
2019-04-07T16:22:15.495Z,17.12
2019-04-07T16:24:51.569Z,16.77
2019-04-07T16:27:26.044Z,18.15
2019-04-07T16:29:58.349Z,17.52
2019-04-07T16:32:32.755Z,17.30
2019-04-07T16:35:06.771Z,17.70
2019-04-07T16:37:40.169Z,17.98
2019-04-07T16:40:14.149Z,18.12
2019-04-07T16:43:01.260Z,18.40
2019-04-07T16:45:22.354Z,18.05
2019-04-07T16:47:56.538Z,17.85
2019-04-07T16:50:30.163Z,17.70
2019-04-07T16:53:03.563Z,17.70
2019-04-07T16:55:48.873Z,17.00
2019-04-07T16:58:18.598Z,18.37
2019-04-07T17:00:51.766Z,18.02
2019-04-07T17:03:25.742Z,18.27
2019-04-07T17:06:01.217Z,18.20
2019-04-07T17:08:33.856Z,16.85
2019-04-07T17:11:08.117Z,18.05
2019-04-07T17:13:42.980Z,18.62
2019-04-07T17:16:22.153Z,18.55
2019-04-07T17:18:56.208Z,17.75
2019-04-07T17:21:30.139Z,18.25
2019-04-07T17:24:04.179Z,18.48
2019-04-07T17:26:39.307Z,18.82
2019-04-07T17:29:17.056Z,19.35
2019-04-07T17:31:48.646Z,19.30
2019-04-07T17:34:21.709Z,19.12
2019-04-07T17:36:56.329Z,18.80
2019-04-07T17:39:43.908Z,19.20
2019-04-07T17:42:18.386Z,18.65
2019-04-07T17:45:13.086Z,19.30
2019-04-07T17:48:20.285Z,19.35
2019-04-07T17:51:12.513Z,19.62
2019-04-07T17:53:58.314Z,19.82
2019-04-07T17:56:43.185Z,20.43
2019-04-07T17:59:35.090Z,20.70
2019-04-07T18:02:30.388Z,21.07
2019-04-07T18:05:24.269Z,20.55
2019-04-07T18:08:10.181Z,21.65
2019-04-07T18:11:04.347Z,21.25
2019-04-07T18:14:13.981Z,19.95
2019-04-07T18:16:55.333Z,20.70
2019-04-07T18:19:38.612Z,21.95
2019-04-07T18:22:29.687Z,23.27
2019-04-07T18:25:21.643Z,26.70
2019-04-07T18:28:07.083Z,29.55
2019-04-07T18:31:15.294Z,43.25
2019-04-07T18:34:25.758Z,53.38
2019-04-07T18:37:18.372Z,59.33
2019-04-07T18:40:09.740Z,60.65
2019-04-07T18:42:59.197Z,64.05
2019-04-07T18:45:52.673Z,57.35
2019-04-07T18:48:38.976Z,64.72
2019-04-07T18:51:27.973Z,64.75
2019-04-07T18:54:13.608Z,41.53
2019-04-07T18:57:05.649Z,32.25
2019-04-07T19:00:03.040Z,29.75
2019-04-07T19:02:48.232Z,29.32
2019-04-07T19:05:33.396Z,29.72
2019-04-07T19:08:27.171Z,29.75
2019-04-07T19:11:15.278Z,30.10
2019-04-07T19:14:25.219Z,29.00
2019-04-07T19:17:08.465Z,39.85
2019-04-07T19:20:12.985Z,39.45
2019-04-07T19:22:58.636Z,40.75
2019-04-07T19:25:48.091Z,45.88
2019-04-07T19:28:42.365Z,46.45
2019-04-07T19:31:32.927Z,44.70
2019-04-07T19:34:28.415Z,47.53
2019-04-07T19:37:22.418Z,47.83
2019-04-07T19:40:14.510Z,54.48
2019-04-07T19:42:52.702Z,52.35
2019-04-07T19:45:50.169Z,51.33
2019-04-07T19:48:42.768Z,51.37
2019-04-07T19:51:39.672Z,50.90
2019-04-07T19:54:29.333Z,49.58
2019-04-07T19:57:27.865Z,45.63
2019-04-07T20:00:23.433Z,40.73
2019-04-07T20:03:20.330Z,42.80
2019-04-07T20:06:07.125Z,42.50
2019-04-07T20:09:11.251Z,41.77
2019-04-07T20:12:02.845Z,43.92
2019-04-07T20:15:00.557Z,43.90
2019-04-07T20:17:56.520Z,52.50
2019-04-07T20:20:43.516Z,55.55
2019-04-07T20:23:28.503Z,54.27
2019-04-07T20:26:26.030Z,54.33
2019-04-07T20:29:39.301Z,43.42
2019-04-07T20:32:33.490Z,40.38
2019-04-07T20:35:39.283Z,44.35
2019-04-07T20:38:31.703Z,38.48
2019-04-07T20:41:29.470Z,33.65
2019-04-07T20:44:23.204Z,35.25
2019-04-07T20:47:16.155Z,35.00
2019-04-07T20:50:12.518Z,35.63
2019-04-07T20:53:21.758Z,38.67
2019-04-07T20:56:18.614Z,38.02
2019-04-07T20:59:13.866Z,38.48
2019-04-07T21:02:11.481Z,34.73
2019-04-07T21:05:12.455Z,37.90
2019-04-07T21:08:12.911Z,35.55
2019-04-07T21:11:01.489Z,34.75
2019-04-07T21:13:47.175Z,37.15
2019-04-07T21:16:34.228Z,34.67
2019-04-07T21:19:14.131Z,32.95
2019-04-07T21:21:58.489Z,32.28
2019-04-07T21:24:38.997Z,32.20
2019-04-07T21:27:33.735Z,33.60
2019-04-07T21:30:14.801Z,32.75
2019-04-07T21:33:13.213Z,33.50
2019-04-07T21:36:06.456Z,32.58
2019-04-07T21:38:56.409Z,29.92
2019-04-07T21:41:50.327Z,31.25
2019-04-07T21:44:50.914Z,31.95
2019-04-07T21:47:36.589Z,30.50
2019-04-07T21:50:31.573Z,31.75
2019-04-07T21:53:33.484Z,30.52
2019-04-07T21:56:20.901Z,30.65
2019-04-07T21:59:11.733Z,31.45
2019-04-07T22:02:11.832Z,29.82
2019-04-07T22:05:02.966Z,29.32
2019-04-07T22:07:55.673Z,28.42
2019-04-07T22:10:30.756Z,29.30
2019-04-07T22:13:06.452Z,30.10
2019-04-07T22:15:45.807Z,29.37
2019-04-07T22:18:14.934Z,30.62
2019-04-07T22:20:52.960Z,27.70
2019-04-07T22:23:25.064Z,28.02
2019-04-07T22:25:59.425Z,27.93
2019-04-07T22:28:33.613Z,27.40
2019-04-07T22:31:10.934Z,28.95
2019-04-07T22:33:42.894Z,27.25
2019-04-07T22:36:17.079Z,26.17
2019-04-07T22:38:54.411Z,27.07
2019-04-07T22:41:27.038Z,25.25
2019-04-07T22:44:00.833Z,25.62
2019-04-07T22:46:35.002Z,26.62
2019-04-07T22:49:07.848Z,23.07
2019-04-07T22:51:44.629Z,24.00
2019-04-07T22:54:16.740Z,23.75
2019-04-07T22:56:52.191Z,22.48
2019-04-07T22:59:26.023Z,24.07
2019-04-07T23:01:59.875Z,23.90
2019-04-07T23:04:34.313Z,24.18
2019-04-07T23:07:08.232Z,24.57
2019-04-07T23:09:42.740Z,23.55
2019-04-07T23:12:16.911Z,24.90
2019-04-07T23:14:51.371Z,24.37
2019-04-07T23:17:24.584Z,22.77
2019-04-07T23:19:58.854Z,21.90
2019-04-07T23:22:32.174Z,23.32
2019-04-07T23:25:05.765Z,22.45
2019-04-07T23:27:38.771Z,22.50
2019-04-07T23:30:14.016Z,23.85
2019-04-07T23:32:47.941Z,24.50
2019-04-07T23:35:22.316Z,22.75
2019-04-07T23:37:55.941Z,23.18
2019-04-07T23:40:30.172Z,23.52
2019-04-07T23:43:04.711Z,23.92
2019-04-07T23:45:38.825Z,25.62
2019-04-07T23:48:12.572Z,25.40
2019-04-07T23:50:46.562Z,25.82
2019-04-07T23:54:14.398Z,27.45
2019-04-07T23:56:48.670Z,27.00
2019-04-07T23:59:22.832Z,27.50
